createdAt,value
2023-02-01T00:00:21.324Z,4.30
2023-02-01T00:02:49.826Z,3.77
2023-02-01T00:05:18.137Z,3.57
2023-02-01T00:07:49.771Z,4.47
2023-02-01T00:10:18.265Z,4.07
2023-02-01T00:12:46.911Z,4.30
2023-02-01T00:15:15.181Z,4.20
2023-02-01T00:17:44.811Z,4.60
2023-02-01T00:20:13.627Z,3.97
2023-02-01T00:22:41.870Z,4.17
2023-02-01T00:25:10.382Z,4.07
2023-02-01T00:27:38.623Z,3.23
2023-02-01T00:30:07.286Z,5.13
2023-02-01T00:32:35.570Z,4.90
2023-02-01T00:35:05.319Z,4.17
2023-02-01T00:37:33.532Z,4.30
2023-02-01T00:40:01.858Z,4.23
2023-02-01T00:42:30.083Z,3.43
2023-02-01T00:44:58.301Z,4.00
2023-02-01T00:47:26.482Z,4.13
2023-02-01T00:49:54.681Z,4.47
2023-02-01T00:52:24.325Z,4.27
2023-02-01T00:54:52.570Z,4.63
2023-02-01T00:57:20.816Z,3.97
2023-02-01T00:59:49.086Z,4.50
2023-02-01T01:02:17.410Z,4.73
2023-02-01T01:04:45.690Z,4.70
2023-02-01T01:07:13.888Z,4.13
2023-02-01T01:09:43.771Z,4.30
2023-02-01T01:12:12.070Z,4.37
2023-02-01T01:14:40.328Z,4.40
2023-02-01T01:17:08.589Z,4.13
2023-02-01T01:19:36.799Z,3.80
2023-02-01T01:22:05.102Z,4.60
2023-02-01T01:24:33.355Z,4.20
2023-02-01T01:27:03.024Z,4.03
2023-02-01T01:29:31.325Z,3.67
2023-02-01T01:31:59.577Z,4.33
2023-02-01T01:34:27.949Z,4.33
2023-02-01T01:36:56.359Z,4.07
2023-02-01T01:39:24.805Z,4.83
2023-02-01T01:41:53.004Z,4.40
2023-02-01T01:44:39.725Z,4.37
2023-02-01T01:47:09.553Z,4.13
2023-02-01T01:49:39.254Z,4.40
2023-02-01T01:52:08.228Z,3.77
2023-02-01T01:54:38.084Z,4.10
2023-02-01T01:57:07.722Z,3.80
2023-02-01T01:59:37.896Z,4.23
2023-02-01T02:02:06.234Z,4.27
2023-02-01T02:04:36.781Z,4.13
2023-02-01T02:07:06.684Z,4.07
2023-02-01T02:09:34.985Z,3.50
2023-02-01T02:12:03.186Z,4.03
2023-02-01T02:14:32.426Z,4.27
2023-02-01T02:17:13.632Z,4.43
2023-02-01T02:19:59.867Z,4.27
2023-02-01T02:22:43.922Z,3.80
2023-02-01T02:25:26.303Z,4.67
2023-02-01T02:28:01.591Z,4.07
2023-02-01T02:30:43.453Z,4.50
2023-02-01T02:33:35.485Z,4.00
2023-02-01T02:36:04.439Z,4.13
2023-02-01T02:38:35.432Z,4.00
2023-02-01T02:41:08.529Z,3.90
2023-02-01T02:43:58.063Z,4.40
2023-02-01T02:46:45.715Z,4.27
2023-02-01T02:49:18.408Z,4.37
2023-02-01T02:52:06.990Z,4.53
2023-02-01T02:54:49.797Z,3.80
2023-02-01T02:57:38.265Z,4.20
2023-02-01T03:00:26.744Z,4.13
2023-02-01T03:03:12.764Z,4.27
2023-02-01T03:05:45.029Z,3.70
2023-02-01T03:08:14.104Z,3.60
2023-02-01T03:10:49.909Z,3.83
2023-02-01T03:13:19.913Z,3.87
2023-02-01T03:15:52.148Z,4.70
2023-02-01T03:18:23.184Z,4.10
2023-02-01T03:20:54.338Z,3.90
2023-02-01T03:23:24.365Z,3.97
2023-02-01T03:25:54.019Z,3.90
2023-02-01T03:28:25.563Z,4.10
2023-02-01T03:30:53.870Z,4.27
2023-02-01T03:33:24.191Z,3.90
2023-02-01T03:35:57.735Z,4.50
2023-02-01T03:38:28.320Z,3.67
2023-02-01T03:40:58.729Z,3.73
2023-02-01T03:43:28.162Z,4.00
2023-02-01T03:46:01.100Z,4.37
2023-02-01T03:48:30.475Z,4.43
2023-02-01T03:51:01.813Z,4.40
2023-02-01T03:53:30.929Z,4.13
2023-02-01T03:55:59.814Z,4.47
2023-02-01T03:58:28.111Z,3.90
2023-02-01T04:00:57.100Z,4.07
2023-02-01T04:03:25.859Z,4.67
2023-02-01T04:05:54.759Z,4.00
2023-02-01T04:08:24.400Z,4.73
2023-02-01T04:10:52.724Z,4.20
2023-02-01T04:13:20.900Z,4.73
2023-02-01T04:15:51.466Z,4.13
2023-02-01T04:18:19.742Z,4.60
2023-02-01T04:20:47.955Z,3.73
2023-02-01T04:23:16.644Z,4.90
2023-02-01T04:25:46.196Z,4.97
2023-02-01T04:28:14.357Z,4.37
2023-02-01T04:30:42.671Z,4.33
2023-02-01T04:33:14.795Z,4.30
2023-02-01T04:35:43.031Z,4.23
2023-02-01T04:38:11.203Z,4.30
2023-02-01T04:40:39.485Z,3.77
2023-02-01T04:43:09.035Z,3.37
2023-02-01T04:45:37.240Z,3.93
2023-02-01T04:48:05.645Z,3.73
2023-02-01T04:50:33.815Z,4.30
2023-02-01T04:53:02.044Z,4.80
2023-02-01T04:55:31.683Z,4.73
2023-02-01T04:57:59.911Z,3.90
2023-02-01T05:00:29.472Z,4.10
2023-02-01T05:02:57.640Z,4.00
2023-02-01T05:05:25.855Z,3.77
2023-02-01T05:07:54.042Z,3.70
2023-02-01T05:10:22.483Z,4.30
2023-02-01T05:13:08.393Z,4.53
2023-02-01T05:15:38.049Z,3.93
2023-02-01T05:18:06.314Z,4.23
2023-02-01T05:20:34.526Z,4.00
2023-02-01T05:23:02.735Z,3.80
2023-02-01T05:25:30.918Z,4.20
2023-02-01T05:27:59.161Z,4.27
2023-02-01T05:30:27.341Z,4.27
2023-02-01T05:32:56.964Z,4.93
2023-02-01T05:35:25.170Z,4.23
2023-02-01T05:37:53.353Z,4.60
2023-02-01T05:40:22.038Z,4.50
2023-02-01T05:42:50.397Z,4.57
2023-02-01T05:45:18.620Z,4.40
2023-02-01T05:47:46.835Z,4.70
2023-02-01T05:50:17.498Z,4.97
2023-02-01T05:52:47.088Z,5.13
2023-02-01T05:55:15.339Z,4.33
2023-02-01T05:57:43.649Z,4.47
2023-02-01T06:00:12.499Z,4.40
2023-02-01T06:02:41.665Z,4.80
2023-02-01T06:05:10.288Z,3.97
2023-02-01T06:07:38.560Z,4.63
2023-02-01T06:10:08.664Z,4.37
2023-02-01T06:12:36.851Z,4.30
2023-02-01T06:15:05.226Z,4.33
2023-02-01T06:17:33.500Z,4.10
2023-02-01T06:20:01.691Z,4.57
2023-02-01T06:22:29.889Z,4.43
2023-02-01T06:24:59.803Z,4.30
2023-02-01T06:27:29.377Z,4.57
2023-02-01T06:29:57.538Z,3.60
2023-02-01T06:32:25.813Z,3.93
2023-02-01T06:34:54.070Z,4.30
2023-02-01T06:37:22.481Z,4.37
2023-02-01T06:39:50.698Z,4.33
2023-02-01T06:42:18.879Z,3.90
2023-02-01T06:44:48.466Z,4.10
2023-02-01T06:47:16.647Z,4.20
2023-02-01T06:49:44.871Z,4.50
2023-02-01T06:52:13.078Z,4.17
2023-02-01T06:54:41.382Z,4.87
2023-02-01T06:57:09.563Z,4.23
2023-02-01T06:59:37.739Z,4.50
2023-02-01T07:02:07.445Z,3.77
2023-02-01T07:04:35.738Z,4.00
2023-02-01T07:07:03.955Z,4.07
2023-02-01T07:09:32.398Z,4.40
2023-02-01T07:12:00.638Z,5.00
2023-02-01T07:14:28.796Z,4.03
2023-02-01T07:16:57.006Z,4.33
2023-02-01T07:19:26.611Z,3.80
2023-02-01T07:21:54.815Z,4.60
2023-02-01T07:24:23.067Z,3.80
2023-02-01T07:26:51.974Z,4.30
2023-02-01T07:29:20.265Z,4.27
2023-02-01T07:31:48.438Z,4.80
2023-02-01T07:34:16.749Z,3.90
2023-02-01T07:36:46.511Z,4.90
2023-02-01T07:39:16.562Z,4.73
2023-02-01T07:41:45.006Z,4.70
2023-02-01T07:44:13.180Z,4.90
2023-02-01T07:46:41.405Z,4.37
2023-02-01T07:49:09.662Z,4.20
2023-02-01T07:51:37.966Z,4.07
2023-02-01T07:54:07.640Z,4.23
2023-02-01T07:56:35.908Z,4.07
2023-02-01T07:59:04.135Z,4.17
2023-02-01T08:01:32.397Z,4.27
2023-02-01T08:04:01.780Z,4.47
2023-02-01T08:06:30.485Z,3.97
2023-02-01T08:08:58.754Z,4.27
2023-02-01T08:11:28.626Z,3.57
2023-02-01T08:13:57.203Z,3.60
2023-02-01T08:16:26.403Z,4.13
2023-02-01T08:18:55.070Z,4.53
2023-02-01T08:21:24.154Z,4.30
2023-02-01T08:23:52.695Z,4.80
2023-02-01T08:26:21.890Z,3.90
2023-02-01T08:28:52.338Z,3.80
2023-02-01T08:31:22.396Z,6.17
2023-02-01T08:33:51.532Z,4.40
2023-02-01T08:36:23.225Z,4.03
2023-02-01T08:38:51.500Z,4.07
2023-02-01T08:41:20.496Z,4.47
2023-02-01T08:43:49.574Z,3.73
2023-02-01T08:46:19.706Z,3.93
2023-02-01T08:48:48.667Z,4.00
2023-02-01T08:51:18.022Z,4.20
2023-02-01T08:53:46.235Z,4.70
2023-02-01T08:56:15.294Z,4.17
2023-02-01T08:58:43.973Z,4.63
2023-02-01T09:01:13.972Z,4.40
2023-02-01T09:03:43.672Z,4.53
2023-02-01T09:06:13.091Z,3.53
2023-02-01T09:08:41.721Z,3.53
2023-02-01T09:11:11.011Z,4.20
2023-02-01T09:13:39.225Z,3.77
2023-02-01T09:16:07.751Z,3.77
2023-02-01T09:18:36.039Z,4.17
2023-02-01T09:21:08.167Z,3.93
2023-02-01T09:23:36.460Z,4.10
2023-02-01T09:26:09.890Z,3.70
2023-02-01T09:28:38.285Z,4.07
2023-02-01T09:31:06.715Z,4.10
2023-02-01T09:33:34.987Z,3.90
2023-02-01T09:36:04.142Z,4.10
2023-02-01T09:38:41.742Z,3.90
2023-02-01T09:41:13.658Z,3.50
2023-02-01T09:43:47.734Z,3.93
2023-02-01T09:46:21.398Z,3.80
2023-02-01T09:48:50.738Z,4.03
2023-02-01T09:51:20.157Z,3.70
2023-02-01T09:53:58.598Z,3.73
2023-02-01T09:56:29.315Z,3.73
2023-02-01T09:59:01.896Z,4.63
2023-02-01T10:01:31.297Z,4.43
2023-02-01T10:04:04.205Z,3.60
2023-02-01T10:06:42.863Z,3.73
2023-02-01T10:09:17.742Z,4.27
2023-02-01T10:11:55.440Z,4.10
2023-02-01T10:14:34.532Z,4.13
2023-02-01T10:17:06.476Z,4.27
2023-02-01T10:19:42.566Z,4.43
2023-02-01T10:22:12.162Z,4.13
2023-02-01T10:24:44.243Z,3.93
2023-02-01T10:27:16.651Z,3.93
2023-02-01T10:29:46.895Z,4.10
2023-02-01T10:32:16.735Z,4.00
2023-02-01T10:34:47.369Z,4.33
2023-02-01T10:37:26.238Z,3.57
2023-02-01T10:39:57.164Z,4.13
2023-02-01T10:42:28.240Z,4.23
2023-02-01T10:44:58.195Z,4.00
2023-02-01T10:47:26.462Z,3.80
2023-02-01T10:49:58.379Z,3.27
2023-02-01T10:52:31.436Z,3.60
2023-02-01T10:55:21.138Z,4.27
2023-02-01T10:57:58.085Z,4.17
2023-02-01T11:00:30.208Z,4.47
2023-02-01T11:02:58.858Z,4.37
2023-02-01T11:05:27.439Z,4.60
2023-02-01T11:07:56.962Z,4.23
2023-02-01T11:10:38.555Z,4.17
2023-02-01T11:13:08.258Z,4.13
2023-02-01T11:15:37.789Z,4.27
2023-02-01T11:18:16.904Z,4.13
2023-02-01T11:20:45.734Z,4.40
2023-02-01T11:23:17.350Z,4.30
2023-02-01T11:25:51.167Z,4.20
2023-02-01T11:28:21.451Z,3.90
2023-02-01T11:30:50.588Z,4.73
2023-02-01T11:33:20.136Z,4.57
2023-02-01T11:35:50.190Z,4.43
2023-02-01T11:38:22.974Z,5.40
2023-02-01T11:40:51.773Z,4.37
2023-02-01T11:43:26.069Z,4.60
2023-02-01T11:45:58.600Z,4.17
2023-02-01T11:48:28.444Z,4.20
2023-02-01T11:51:02.006Z,4.07
2023-02-01T11:53:37.189Z,4.37
2023-02-01T11:56:12.705Z,4.37
2023-02-01T11:58:59.161Z,3.80
2023-02-01T12:01:37.326Z,4.17
2023-02-01T12:04:18.519Z,3.93
2023-02-01T12:06:51.651Z,4.23
2023-02-01T12:09:27.230Z,4.50
2023-02-01T12:12:00.744Z,3.87
2023-02-01T12:14:36.675Z,4.03
2023-02-01T12:17:33.376Z,4.57
2023-02-01T12:20:11.237Z,4.40
2023-02-01T12:22:44.760Z,4.53
2023-02-01T12:25:31.751Z,4.10
2023-02-01T12:28:13.831Z,4.40
2023-02-01T12:30:52.489Z,4.20
2023-02-01T12:33:26.443Z,5.17
2023-02-01T12:36:01.301Z,6.60
2023-02-01T12:38:38.103Z,4.20
2023-02-01T12:41:14.585Z,4.57
2023-02-01T12:43:45.335Z,3.93
2023-02-01T12:46:17.211Z,4.33
2023-02-01T12:48:51.926Z,4.87
2023-02-01T12:51:21.269Z,4.53
2023-02-01T12:53:53.162Z,4.17
2023-02-01T12:56:27.114Z,4.47
2023-02-01T12:58:56.826Z,4.23
2023-02-01T13:01:30.145Z,4.30
2023-02-01T13:04:02.021Z,4.57
2023-02-01T13:06:32.677Z,4.17
2023-02-01T13:09:03.776Z,5.17
2023-02-01T13:11:33.595Z,4.07
2023-02-01T13:14:03.479Z,4.70
2023-02-01T13:16:34.647Z,4.47
2023-02-01T13:19:06.361Z,5.37
2023-02-01T13:21:36.218Z,3.93
2023-02-01T13:24:04.996Z,4.60
2023-02-01T13:26:33.288Z,4.50
2023-02-01T13:29:04.296Z,4.57
2023-02-01T13:31:48.625Z,4.87
2023-02-01T13:34:34.784Z,4.20
2023-02-01T13:37:08.150Z,3.83
2023-02-01T13:39:51.516Z,4.00
2023-02-01T13:42:27.667Z,3.87
2023-02-01T13:44:59.249Z,4.23
2023-02-01T13:47:31.920Z,4.37
2023-02-01T13:50:02.087Z,4.27
2023-02-01T13:52:33.252Z,4.23
2023-02-01T13:55:19.517Z,4.27
2023-02-01T13:57:48.344Z,4.70
2023-02-01T14:00:27.111Z,3.87
2023-02-01T14:06:17.514Z,3.97
2023-02-01T14:08:48.224Z,3.90
2023-02-01T14:11:35.836Z,4.13
2023-02-01T14:14:25.140Z,3.73
2023-02-01T14:17:08.333Z,3.97
2023-02-01T14:19:36.856Z,3.60
2023-02-01T14:22:30.815Z,4.03
2023-02-01T14:24:59.798Z,3.47
2023-02-01T14:27:29.159Z,4.33
2023-02-01T14:30:00.545Z,4.23
2023-02-01T14:32:34.794Z,3.87
2023-02-01T14:35:04.242Z,3.37
2023-02-01T14:37:34.999Z,3.30
2023-02-01T14:40:04.269Z,3.27
2023-02-01T14:42:36.921Z,3.97
2023-02-01T14:45:24.482Z,3.70
2023-02-01T14:47:55.211Z,4.13
2023-02-01T14:50:33.317Z,3.53
2023-02-01T14:53:28.142Z,3.40
2023-02-01T14:55:59.703Z,3.40
2023-02-01T14:58:35.310Z,4.00
2023-02-01T15:01:04.984Z,4.20
2023-02-01T15:03:39.163Z,4.37
2023-02-01T15:06:15.901Z,4.43
2023-02-01T15:08:45.891Z,4.13
2023-02-01T15:11:16.684Z,4.33
2023-02-01T15:13:52.808Z,4.03
2023-02-01T15:16:23.152Z,3.70
2023-02-01T15:18:51.805Z,3.47
2023-02-01T15:21:28.730Z,4.03
2023-02-01T15:24:14.188Z,4.00
2023-02-01T15:26:42.649Z,3.03
2023-02-01T15:29:15.134Z,3.30
2023-02-01T15:31:45.601Z,2.93
2023-02-01T15:34:14.426Z,3.20
2023-02-01T15:36:53.526Z,3.23
2023-02-01T15:39:32.711Z,4.07
2023-02-01T15:42:03.985Z,4.53
2023-02-01T15:44:34.869Z,4.60
2023-02-01T15:47:10.781Z,4.20
2023-02-01T15:49:40.634Z,4.10
2023-02-01T15:52:17.978Z,3.67
2023-02-01T15:54:49.848Z,4.70
2023-02-01T15:57:21.933Z,3.13
2023-02-01T15:59:51.754Z,2.90
2023-02-01T16:02:30.547Z,3.13
2023-02-01T16:04:59.187Z,3.20
2023-02-01T16:07:29.383Z,3.90
2023-02-01T16:10:00.287Z,3.70
2023-02-01T16:12:32.514Z,3.97
2023-02-01T16:15:00.829Z,4.13
2023-02-01T16:17:29.319Z,3.60
2023-02-01T16:19:58.184Z,4.20
2023-02-01T16:22:26.514Z,4.13
2023-02-01T16:24:54.782Z,4.10
2023-02-01T16:27:24.756Z,3.77
2023-02-01T16:29:56.796Z,4.40
2023-02-01T16:32:25.298Z,3.97
2023-02-01T16:34:54.352Z,4.63
2023-02-01T16:37:23.515Z,3.53
2023-02-01T16:39:51.779Z,4.30
2023-02-01T16:42:20.126Z,4.20
2023-02-01T16:44:50.121Z,4.40
2023-02-01T16:47:21.597Z,3.90
2023-02-01T16:49:50.802Z,4.30
2023-02-01T16:52:20.612Z,3.87
2023-02-01T16:54:49.984Z,3.97
2023-02-01T16:57:19.061Z,4.17
2023-02-01T16:59:47.627Z,3.60
2023-02-01T17:02:20.296Z,3.90
2023-02-01T17:04:50.147Z,3.37
2023-02-01T17:07:19.728Z,3.83
2023-02-01T17:09:48.390Z,3.90
2023-02-01T17:12:20.906Z,4.37
2023-02-01T17:14:49.182Z,4.33
2023-02-01T17:17:25.778Z,4.77
2023-02-01T17:20:01.330Z,4.87
2023-02-01T17:22:29.633Z,4.70
2023-02-01T17:24:57.905Z,4.27
2023-02-01T17:27:26.204Z,4.87
2023-02-01T17:29:57.066Z,4.37
2023-02-01T17:32:27.873Z,4.17
2023-02-01T17:34:58.401Z,4.53
2023-02-01T17:37:27.533Z,4.40
2023-02-01T17:39:55.924Z,5.30
2023-02-01T17:42:24.407Z,3.57
2023-02-01T17:44:54.975Z,4.03
2023-02-01T17:47:23.211Z,4.33
2023-02-01T17:49:56.649Z,3.97
2023-02-01T17:52:26.042Z,3.50
2023-02-01T17:54:55.003Z,3.70
2023-02-01T17:57:23.501Z,3.70
2023-02-01T17:59:51.803Z,3.37
2023-02-01T18:02:21.193Z,3.80
2023-02-01T18:04:50.002Z,3.73
2023-02-01T18:07:19.772Z,3.90
2023-02-01T18:09:48.041Z,3.57
2023-02-01T18:12:19.757Z,3.40
2023-02-01T18:14:48.065Z,3.10
2023-02-01T18:17:16.324Z,3.53
2023-02-01T18:19:44.578Z,3.23
2023-02-01T18:22:17.323Z,3.17
2023-02-01T18:24:47.012Z,3.43
2023-02-01T18:27:15.278Z,3.50
2023-02-01T18:29:43.521Z,4.27
2023-02-01T18:32:12.481Z,3.73
2023-02-01T18:34:40.951Z,3.57
2023-02-01T18:37:09.286Z,3.83
2023-02-01T18:39:39.465Z,3.20
2023-02-01T18:42:11.849Z,3.30
2023-02-01T18:44:40.245Z,4.30
2023-02-01T18:47:08.573Z,3.23
2023-02-01T18:49:37.828Z,4.10
2023-02-01T18:52:06.719Z,3.40
2023-02-01T18:54:34.978Z,3.40
2023-02-01T18:57:03.419Z,3.27
2023-02-01T18:59:33.166Z,2.90
2023-02-01T19:02:03.136Z,3.27
2023-02-01T19:04:31.435Z,3.10
2023-02-01T19:07:01.183Z,3.17
2023-02-01T19:09:32.215Z,2.70
2023-02-01T19:12:00.441Z,2.23
2023-02-01T19:14:28.697Z,3.03
2023-02-01T19:16:59.639Z,2.27
2023-02-01T19:19:28.403Z,2.77
2023-02-01T19:21:56.633Z,2.53
2023-02-01T19:24:27.866Z,2.77
2023-02-01T19:26:56.823Z,2.67
2023-02-01T19:29:25.407Z,2.37
2023-02-01T19:31:53.720Z,2.40
2023-02-01T19:34:23.417Z,2.30
2023-02-01T19:36:52.574Z,2.73
2023-02-01T19:39:22.034Z,3.13
2023-02-01T19:41:50.313Z,2.63
2023-02-01T19:44:18.641Z,2.20
2023-02-01T19:46:47.410Z,2.73
2023-02-01T19:49:15.699Z,2.30
2023-02-01T19:51:45.290Z,2.97
2023-02-01T19:54:14.417Z,3.60
2023-02-01T19:56:44.028Z,3.60
2023-02-01T19:59:13.343Z,2.90
2023-02-01T20:01:44.156Z,3.57
2023-02-01T20:04:12.520Z,2.73
2023-02-01T20:06:47.328Z,3.20
2023-02-01T20:09:17.381Z,3.00
2023-02-01T20:11:45.745Z,3.37
2023-02-01T20:14:14.374Z,3.33
2023-02-01T20:16:43.513Z,3.00
2023-02-01T20:19:12.233Z,3.37
2023-02-01T20:21:42.677Z,3.50
2023-02-01T20:24:13.356Z,3.73
2023-02-01T20:26:44.096Z,3.30
2023-02-01T20:29:13.279Z,4.03
2023-02-01T20:31:41.774Z,3.40
2023-02-01T20:34:12.047Z,3.23
2023-02-01T20:36:40.561Z,4.33
2023-02-01T20:39:09.199Z,3.97
2023-02-01T20:41:37.563Z,3.90
2023-02-01T20:44:07.475Z,3.93
2023-02-01T20:46:35.850Z,4.00
2023-02-01T20:49:04.121Z,4.23
2023-02-01T20:51:32.382Z,4.00
2023-02-01T20:54:00.828Z,4.37
2023-02-01T20:56:29.320Z,4.90
2023-02-01T20:59:02.950Z,4.73
2023-02-01T21:01:32.722Z,4.03
2023-02-01T21:04:01.325Z,3.77
2023-02-01T21:06:29.550Z,3.80
2023-02-01T21:08:57.852Z,4.30
2023-02-01T21:11:26.088Z,4.33
2023-02-01T21:13:54.301Z,3.80
2023-02-01T21:16:23.556Z,4.23
2023-02-01T21:18:53.858Z,4.00
2023-02-01T21:21:22.572Z,4.90
2023-02-01T21:23:52.715Z,4.60
2023-02-01T21:26:22.538Z,4.80
2023-02-01T21:28:51.659Z,3.87
2023-02-01T21:31:22.049Z,4.40
2023-02-01T21:33:50.682Z,4.10
2023-02-01T21:36:20.392Z,3.90
2023-02-01T21:38:50.770Z,4.23
2023-02-01T21:41:36.515Z,4.67
2023-02-01T21:44:04.794Z,4.73
2023-02-01T21:46:33.063Z,4.20
2023-02-01T21:49:04.050Z,3.87
2023-02-01T21:51:35.278Z,4.10
2023-02-01T21:54:03.561Z,5.30
2023-02-01T21:56:31.823Z,4.77
2023-02-01T21:59:00.067Z,4.13
2023-02-01T22:01:28.658Z,3.80
2023-02-01T22:03:56.890Z,4.27
2023-02-01T22:06:25.430Z,4.03
2023-02-01T22:08:55.230Z,4.00
2023-02-01T22:11:23.887Z,3.73
2023-02-01T22:13:52.108Z,3.87
2023-02-01T22:16:21.558Z,4.23
2023-02-01T22:18:50.454Z,4.43
2023-02-01T22:21:18.939Z,3.83
2023-02-01T22:23:47.292Z,3.97
2023-02-01T22:26:16.954Z,4.00
2023-02-01T22:28:45.492Z,3.90
2023-02-01T22:31:13.770Z,4.10
2023-02-01T22:33:42.046Z,4.23
2023-02-01T22:36:10.643Z,3.63
2023-02-01T22:38:38.821Z,3.93
2023-02-01T22:41:07.512Z,3.40
2023-02-01T22:43:37.428Z,3.70
2023-02-01T22:46:06.522Z,3.27
2023-02-01T22:48:36.821Z,3.80
2023-02-01T22:51:05.233Z,3.70
2023-02-01T22:53:33.899Z,3.90
2023-02-01T22:56:02.206Z,3.73
2023-02-01T22:58:30.571Z,3.07
2023-02-01T23:01:07.964Z,2.87
2023-02-01T23:03:36.370Z,3.00
2023-02-01T23:06:05.293Z,3.40
2023-02-01T23:08:35.279Z,3.30
2023-02-01T23:11:04.162Z,3.07
2023-02-01T23:13:32.577Z,3.20
2023-02-01T23:16:05.810Z,3.30
2023-02-01T23:18:34.048Z,3.40
2023-02-01T23:21:06.528Z,3.23
2023-02-01T23:23:34.947Z,3.53
2023-02-01T23:26:03.244Z,2.97
2023-02-01T23:28:32.097Z,2.73
2023-02-01T23:31:01.745Z,3.30
2023-02-01T23:33:30.004Z,2.50
2023-02-01T23:35:58.999Z,2.30
2023-02-01T23:38:27.520Z,3.27
2023-02-01T23:40:58.862Z,3.23
2023-02-01T23:43:44.928Z,2.63
2023-02-01T23:46:15.754Z,3.30
2023-02-01T23:48:44.042Z,2.83
2023-02-01T23:51:12.302Z,2.80
2023-02-01T23:53:40.867Z,3.23
2023-02-01T23:56:09.428Z,3.03
2023-02-01T23:58:37.709Z,2.67
